createdAt,value
2019-02-18T00:00:20.140Z,6.50
2019-02-18T00:02:49.086Z,6.50
2019-02-18T00:05:17.754Z,6.60
2019-02-18T00:07:46.390Z,6.40
2019-02-18T00:10:15.227Z,6.40
2019-02-18T00:12:43.970Z,6.50
2019-02-18T00:15:12.856Z,6.50
2019-02-18T00:17:41.789Z,6.40
2019-02-18T00:20:10.883Z,6.30
2019-02-18T00:22:39.715Z,6.40
2019-02-18T00:25:08.746Z,6.30
2019-02-18T00:27:37.552Z,6.30
2019-02-18T00:30:08.439Z,6.30
2019-02-18T00:32:37.127Z,6.20
2019-02-18T00:35:05.901Z,6.20
2019-02-18T00:37:34.644Z,6.20
2019-02-18T00:40:03.835Z,6.10
2019-02-18T00:42:32.728Z,6.10
2019-02-18T00:45:01.349Z,6.00
2019-02-18T00:47:30.057Z,6.00
2019-02-18T00:49:58.885Z,6.00
2019-02-18T00:52:27.672Z,5.90
2019-02-18T00:54:58.041Z,5.90
2019-02-18T00:57:27.074Z,5.80
2019-02-18T00:59:56.167Z,5.90
2019-02-18T01:02:24.969Z,5.90
2019-02-18T01:04:53.657Z,5.80
2019-02-18T01:07:22.383Z,5.70
2019-02-18T01:09:51.182Z,5.70
2019-02-18T01:12:20.014Z,5.80
2019-02-18T01:14:50.375Z,5.70
2019-02-18T01:17:19.088Z,5.70
2019-02-18T01:19:48.811Z,5.80
2019-02-18T01:22:17.577Z,5.70
2019-02-18T01:24:46.260Z,5.60
2019-02-18T01:27:15.194Z,5.80
2019-02-18T01:29:43.844Z,5.90
2019-02-18T01:32:12.506Z,5.90
2019-02-18T01:34:41.536Z,5.80
2019-02-18T01:37:10.257Z,5.90
2019-02-18T01:39:39.833Z,5.80
2019-02-18T01:42:08.583Z,5.60
2019-02-18T01:44:37.520Z,5.60
2019-02-18T01:47:06.150Z,5.60
2019-02-18T01:49:34.886Z,5.60
2019-02-18T01:52:03.573Z,5.80
2019-02-18T01:54:32.255Z,5.70
2019-02-18T01:57:01.065Z,5.60
2019-02-18T01:59:29.759Z,5.60
2019-02-18T02:01:58.367Z,5.60
2019-02-18T02:04:27.606Z,5.70
2019-02-18T02:06:56.395Z,5.60
2019-02-18T02:09:26.001Z,5.50
2019-02-18T02:11:55.151Z,5.40
2019-02-18T02:14:23.859Z,5.20
2019-02-18T02:16:52.598Z,5.30
2019-02-18T02:19:21.209Z,5.30
2019-02-18T02:21:50.343Z,5.40
2019-02-18T02:24:19.438Z,5.30
2019-02-18T02:26:48.533Z,5.30
2019-02-18T02:29:17.587Z,5.10
2019-02-18T02:31:46.619Z,5.10
2019-02-18T02:34:15.368Z,5.30
2019-02-18T02:36:44.089Z,5.40
2019-02-18T02:39:12.647Z,5.40
2019-02-18T02:41:41.482Z,5.40
2019-02-18T02:44:10.552Z,5.50
2019-02-18T02:46:39.645Z,5.40
2019-02-18T02:49:08.233Z,5.40
2019-02-18T02:51:37.423Z,5.40
2019-02-18T02:54:06.166Z,5.30
2019-02-18T02:56:37.319Z,5.30
2019-02-18T02:59:05.149Z,5.30
2019-02-18T03:01:33.910Z,5.30
2019-02-18T03:04:02.585Z,5.30
2019-02-18T03:06:31.271Z,5.20
2019-02-18T03:08:59.960Z,5.20
2019-02-18T03:11:28.595Z,5.30
2019-02-18T03:13:57.256Z,5.20
2019-02-18T03:16:25.964Z,5.20
2019-02-18T03:18:54.592Z,5.10
2019-02-18T03:21:23.228Z,5.10
2019-02-18T03:23:52.018Z,5.10
2019-02-18T03:26:20.639Z,5.10
2019-02-18T03:29:04.586Z,5.10
2019-02-18T03:31:33.474Z,5.00
2019-02-18T03:34:08.036Z,5.00
2019-02-18T03:36:36.985Z,5.00
2019-02-18T03:39:06.649Z,4.90
2019-02-18T03:41:35.656Z,4.90
2019-02-18T03:44:04.435Z,5.00
2019-02-18T03:46:33.128Z,4.90
2019-02-18T03:49:01.942Z,4.90
2019-02-18T03:51:31.034Z,4.90
2019-02-18T03:53:59.729Z,5.00
2019-02-18T03:56:28.508Z,4.90
2019-02-18T03:58:57.221Z,4.90
2019-02-18T04:01:26.140Z,4.90
2019-02-18T04:03:54.823Z,4.90
2019-02-18T04:06:23.655Z,4.90
2019-02-18T04:08:52.703Z,4.90
2019-02-18T04:11:21.493Z,4.90
2019-02-18T04:13:50.298Z,4.90
2019-02-18T04:16:19.312Z,4.90
2019-02-18T04:18:48.204Z,4.90
2019-02-18T04:21:16.847Z,4.90
2019-02-18T04:23:45.638Z,4.90
2019-02-18T04:26:14.272Z,5.00
2019-02-18T04:28:43.007Z,5.00
2019-02-18T04:31:11.633Z,4.90
2019-02-18T04:33:40.412Z,4.80
2019-02-18T04:36:09.153Z,4.80
2019-02-18T04:38:37.883Z,4.70
2019-02-18T04:41:06.504Z,4.70
2019-02-18T04:43:35.233Z,4.60
2019-02-18T04:46:04.039Z,4.60
2019-02-18T04:48:32.677Z,4.60
2019-02-18T04:51:01.311Z,4.60
2019-02-18T04:53:29.940Z,4.60
2019-02-18T04:55:58.879Z,4.70
2019-02-18T04:58:27.971Z,4.70
2019-02-18T05:00:56.563Z,4.70
2019-02-18T05:03:25.194Z,4.70
2019-02-18T05:05:53.883Z,4.70
2019-02-18T05:08:22.608Z,4.70
2019-02-18T05:10:51.198Z,4.60
2019-02-18T05:13:19.873Z,4.60
2019-02-18T05:15:48.528Z,4.60
2019-02-18T05:18:17.140Z,4.70
2019-02-18T05:20:45.828Z,4.70
2019-02-18T05:23:14.672Z,4.60
2019-02-18T05:25:43.616Z,4.70
2019-02-18T05:28:12.814Z,4.70
2019-02-18T05:30:47.205Z,4.60
2019-02-18T05:33:12.177Z,4.60
2019-02-18T05:35:40.859Z,4.60
2019-02-18T05:38:09.614Z,4.60
2019-02-18T05:40:38.828Z,4.60
2019-02-18T05:43:07.421Z,4.60
2019-02-18T05:45:36.418Z,4.60
2019-02-18T05:48:05.159Z,4.60
2019-02-18T05:50:34.290Z,4.60
2019-02-18T05:53:03.130Z,4.60
2019-02-18T05:55:31.868Z,4.70
2019-02-18T05:58:00.904Z,4.70
2019-02-18T06:00:29.798Z,4.70
2019-02-18T06:02:58.347Z,4.70
2019-02-18T06:05:27.177Z,4.70
2019-02-18T06:07:55.785Z,4.70
2019-02-18T06:10:24.487Z,4.70
2019-02-18T06:12:53.167Z,4.60
2019-02-18T06:15:22.003Z,4.60
2019-02-18T06:17:50.685Z,4.60
2019-02-18T06:20:19.677Z,4.60
2019-02-18T06:22:48.380Z,4.60
2019-02-18T06:25:16.995Z,4.60
2019-02-18T06:27:45.830Z,4.60
2019-02-18T06:30:14.526Z,4.50
2019-02-18T06:32:43.419Z,4.50
2019-02-18T06:35:12.368Z,4.50
2019-02-18T06:37:41.093Z,4.50
2019-02-18T06:40:10.279Z,4.50
2019-02-18T06:42:38.926Z,4.60
2019-02-18T06:45:11.982Z,4.60
2019-02-18T06:47:40.750Z,4.60
2019-02-18T06:50:09.735Z,4.60
2019-02-18T06:52:38.826Z,4.60
2019-02-18T06:55:07.709Z,4.60
2019-02-18T06:57:54.487Z,4.60
2019-02-18T07:00:23.981Z,4.60
2019-02-18T07:02:54.343Z,4.60
2019-02-18T07:05:24.959Z,4.60
2019-02-18T07:07:55.252Z,4.60
2019-02-18T07:10:25.514Z,4.60
2019-02-18T07:12:54.120Z,4.70
2019-02-18T07:15:23.254Z,4.70
2019-02-18T07:17:51.934Z,4.90
2019-02-18T07:20:20.662Z,4.90
2019-02-18T07:22:49.510Z,5.00
2019-02-18T07:25:18.168Z,5.20
2019-02-18T07:27:46.985Z,5.40
2019-02-18T07:30:15.735Z,5.80
2019-02-18T07:32:44.452Z,6.10
2019-02-18T07:35:13.180Z,6.30
2019-02-18T07:37:42.377Z,6.20
2019-02-18T07:40:11.162Z,6.30
2019-02-18T07:42:39.821Z,6.30
2019-02-18T07:45:10.068Z,6.60
2019-02-18T07:47:38.688Z,7.00
2019-02-18T07:50:20.377Z,7.60
2019-02-18T07:52:41.712Z,7.90
2019-02-18T07:55:10.538Z,7.60
2019-02-18T07:57:39.182Z,7.10
2019-02-18T08:00:13.101Z,6.90
2019-02-18T08:02:43.612Z,6.70
2019-02-18T08:05:12.341Z,6.70
2019-02-18T08:07:41.026Z,6.60
2019-02-18T08:10:12.393Z,6.60
2019-02-18T08:12:41.978Z,6.50
2019-02-18T08:15:11.612Z,6.60
2019-02-18T08:17:40.235Z,7.10
2019-02-18T08:20:09.801Z,7.80
2019-02-18T08:22:38.661Z,8.50
2019-02-18T08:25:10.181Z,8.80
2019-02-18T08:27:38.835Z,9.30
2019-02-18T08:30:12.928Z,9.40
2019-02-18T08:32:41.692Z,9.70
2019-02-18T08:35:09.764Z,10.40
2019-02-18T08:37:37.935Z,11.00
2019-02-18T08:40:07.907Z,11.30
2019-02-18T08:42:36.708Z,11.80
2019-02-18T08:45:06.126Z,12.20
2019-02-18T08:47:34.417Z,11.90
2019-02-18T08:50:02.689Z,11.50
2019-02-18T08:52:31.263Z,11.90
2019-02-18T08:54:59.546Z,12.10
2019-02-18T08:57:27.434Z,11.90
2019-02-18T08:59:55.458Z,12.10
2019-02-18T09:02:23.856Z,12.10
2019-02-18T09:04:52.142Z,12.30
2019-02-18T09:07:20.803Z,12.30
2019-02-18T09:09:51.154Z,12.40
2019-02-18T09:12:18.374Z,12.80
2019-02-18T09:14:46.639Z,12.20
2019-02-18T09:17:14.609Z,13.00
2019-02-18T09:19:42.600Z,13.20
2019-02-18T09:22:28.141Z,13.10
2019-02-18T09:24:58.502Z,13.90
2019-02-18T09:27:27.247Z,13.50
2019-02-18T09:29:55.933Z,13.90
2019-02-18T09:32:24.720Z,13.90
2019-02-18T09:34:53.413Z,14.00
2019-02-18T09:37:22.234Z,13.90
2019-02-18T09:39:50.886Z,14.20
2019-02-18T09:42:19.660Z,14.20
2019-02-18T09:44:48.391Z,14.10
2019-02-18T09:47:19.838Z,14.60
2019-02-18T09:49:48.583Z,14.50
2019-02-18T09:52:17.310Z,14.40
2019-02-18T09:54:45.955Z,14.50
2019-02-18T09:57:14.781Z,14.00
2019-02-18T09:59:43.330Z,13.50
2019-02-18T10:02:12.009Z,13.40
2019-02-18T10:04:40.730Z,13.40
2019-02-18T10:07:09.475Z,13.30
2019-02-18T10:09:38.104Z,13.70
2019-02-18T10:12:17.770Z,13.70
2019-02-18T10:14:37.678Z,13.80
2019-02-18T10:17:06.364Z,13.40
2019-02-18T10:19:35.045Z,13.00
2019-02-18T10:22:04.183Z,13.00
2019-02-18T10:24:33.174Z,13.10
2019-02-18T10:27:01.863Z,13.10
2019-02-18T10:29:30.839Z,12.90
2019-02-18T10:32:00.131Z,13.10
2019-02-18T10:34:28.890Z,13.20
2019-02-18T10:36:57.619Z,13.00
2019-02-18T10:39:26.262Z,12.70
2019-02-18T10:41:55.356Z,12.50
2019-02-18T10:44:24.169Z,12.60
2019-02-18T10:46:52.855Z,12.80
2019-02-18T10:49:23.116Z,12.90
2019-02-18T10:51:52.045Z,12.70
2019-02-18T10:54:20.751Z,12.80
2019-02-18T10:56:49.513Z,12.90
2019-02-18T10:59:18.308Z,12.70
2019-02-18T11:01:47.433Z,12.90
2019-02-18T11:04:16.186Z,12.90
2019-02-18T11:06:45.929Z,12.90
2019-02-18T11:09:14.777Z,13.10
2019-02-18T11:11:43.565Z,12.90
2019-02-18T11:14:12.658Z,12.90
2019-02-18T11:16:41.603Z,13.00
2019-02-18T11:19:10.775Z,13.10
2019-02-18T11:21:39.391Z,13.00
2019-02-18T11:24:08.152Z,13.00
2019-02-18T11:26:36.999Z,12.90
2019-02-18T11:29:07.846Z,12.90
2019-02-18T11:31:36.561Z,13.00
2019-02-18T11:34:05.205Z,13.00
2019-02-18T11:36:34.236Z,13.10
2019-02-18T11:39:04.831Z,13.20
2019-02-18T11:41:33.535Z,13.30
2019-02-18T11:44:03.018Z,13.40
2019-02-18T11:46:31.658Z,13.40
2019-02-18T11:49:00.385Z,13.50
2019-02-18T11:51:29.313Z,13.60
2019-02-18T11:53:58.363Z,13.80
2019-02-18T11:56:27.504Z,13.80
2019-02-18T11:58:56.284Z,13.80
2019-02-18T12:01:25.034Z,13.80
2019-02-18T12:03:53.727Z,13.90
2019-02-18T12:06:22.863Z,13.80
2019-02-18T12:08:51.599Z,13.90
2019-02-18T12:11:20.429Z,14.00
2019-02-18T12:13:49.523Z,14.10
2019-02-18T12:16:18.165Z,14.10
2019-02-18T12:18:46.953Z,14.10
2019-02-18T12:21:15.778Z,14.20
2019-02-18T12:23:44.424Z,14.30
2019-02-18T12:26:13.111Z,14.30
2019-02-18T12:28:41.729Z,14.50
2019-02-18T12:31:10.678Z,14.40
2019-02-18T12:33:39.405Z,14.40
2019-02-18T12:36:08.048Z,14.40
2019-02-18T12:38:37.184Z,14.30
2019-02-18T12:41:05.938Z,14.40
2019-02-18T12:43:34.616Z,14.40
2019-02-18T12:46:03.497Z,14.40
2019-02-18T12:48:32.287Z,14.40
2019-02-18T12:51:01.013Z,14.40
2019-02-18T12:53:29.990Z,14.40
2019-02-18T12:55:59.204Z,14.40
2019-02-18T12:58:28.402Z,14.40
2019-02-18T13:00:57.583Z,14.40
2019-02-18T13:03:26.996Z,14.30
2019-02-18T13:05:55.783Z,14.40
2019-02-18T13:08:25.223Z,14.30
2019-02-18T13:10:54.005Z,14.50
2019-02-18T13:13:22.623Z,14.60
2019-02-18T13:15:52.775Z,14.60
2019-02-18T13:18:22.032Z,14.70
2019-02-18T13:20:51.124Z,14.60
2019-02-18T13:23:19.953Z,14.70
2019-02-18T13:25:48.638Z,14.60
2019-02-18T13:28:17.526Z,14.80
2019-02-18T13:30:46.211Z,15.00
2019-02-18T13:33:14.894Z,14.90
2019-02-18T13:35:44.194Z,14.90
2019-02-18T13:38:12.779Z,14.80
2019-02-18T13:40:41.835Z,14.80
2019-02-18T13:43:11.058Z,14.80
2019-02-18T13:45:40.048Z,15.00
2019-02-18T13:48:10.451Z,15.00
2019-02-18T13:50:39.190Z,15.00
2019-02-18T13:53:08.298Z,15.00
2019-02-18T13:55:37.521Z,15.10
2019-02-18T13:58:06.332Z,15.10
2019-02-18T14:00:35.503Z,15.10
2019-02-18T14:03:04.330Z,15.10
2019-02-18T14:05:33.015Z,15.00
2019-02-18T14:08:02.270Z,14.90
2019-02-18T14:10:31.163Z,15.00
2019-02-18T14:13:00.311Z,15.00
2019-02-18T14:15:29.556Z,15.10
2019-02-18T14:17:58.282Z,15.20
2019-02-18T14:20:27.026Z,15.20
2019-02-18T14:22:56.123Z,15.30
2019-02-18T14:25:24.928Z,15.30
2019-02-18T14:27:54.253Z,15.30
2019-02-18T14:30:22.998Z,15.30
2019-02-18T14:32:51.780Z,15.40
2019-02-18T14:35:20.489Z,15.40
2019-02-18T14:37:49.845Z,15.40
2019-02-18T14:40:20.542Z,15.40
2019-02-18T14:42:49.243Z,15.50
2019-02-18T14:45:18.081Z,15.50
2019-02-18T14:47:46.899Z,15.60
2019-02-18T14:50:17.815Z,15.50
2019-02-18T14:52:47.133Z,15.60
2019-02-18T14:55:15.928Z,15.60
2019-02-18T14:58:06.199Z,15.50
2019-02-18T15:00:35.613Z,15.60
2019-02-18T15:03:05.484Z,15.80
2019-02-18T15:05:34.315Z,16.00
2019-02-18T15:08:02.955Z,15.90
2019-02-18T15:10:31.978Z,15.80
2019-02-18T15:13:00.732Z,15.80
2019-02-18T15:15:29.858Z,15.80
2019-02-18T15:17:58.612Z,15.70
2019-02-18T15:20:27.446Z,15.70
2019-02-18T15:22:56.143Z,15.70
2019-02-18T15:25:26.305Z,15.70
2019-02-18T15:27:55.399Z,15.70
2019-02-18T15:30:24.430Z,15.60
2019-02-18T15:32:53.218Z,15.50
2019-02-18T15:35:22.314Z,15.60
2019-02-18T15:37:51.204Z,15.50
2019-02-18T15:40:20.871Z,15.40
2019-02-18T15:42:49.622Z,15.50
2019-02-18T15:45:18.487Z,15.60
2019-02-18T15:47:47.157Z,15.60
2019-02-18T15:50:15.887Z,15.60
2019-02-18T15:52:44.948Z,15.50
2019-02-18T15:55:13.797Z,15.50
2019-02-18T15:57:42.578Z,15.20
2019-02-18T16:00:20.173Z,14.90
2019-02-18T16:02:51.075Z,14.70
2019-02-18T16:05:20.103Z,14.50
2019-02-18T16:07:49.137Z,14.40
2019-02-18T16:10:18.223Z,14.20
2019-02-18T16:12:50.958Z,14.00
2019-02-18T16:15:17.482Z,13.90
2019-02-18T16:17:46.853Z,13.90
2019-02-18T16:20:15.530Z,13.80
2019-02-18T16:22:46.053Z,13.70
2019-02-18T16:25:20.799Z,13.60
2019-02-18T16:27:49.876Z,13.50
2019-02-18T16:30:18.563Z,13.40
2019-02-18T16:32:47.451Z,13.30
2019-02-18T16:35:17.319Z,13.30
2019-02-18T16:37:46.353Z,13.20
2019-02-18T16:40:23.231Z,13.10
2019-02-18T16:42:59.081Z,13.00
2019-02-18T16:45:23.262Z,13.00
2019-02-18T16:47:51.946Z,12.80
2019-02-18T16:50:20.562Z,12.80
2019-02-18T16:52:49.274Z,12.70
2019-02-18T16:55:18.001Z,12.60
2019-02-18T16:57:46.627Z,12.50
2019-02-18T17:00:21.469Z,12.50
2019-02-18T17:02:51.042Z,12.40
2019-02-18T17:05:19.704Z,12.30
2019-02-18T17:07:48.446Z,12.30
2019-02-18T17:10:17.129Z,12.30
2019-02-18T17:12:46.472Z,12.10
2019-02-18T17:15:15.317Z,12.00
2019-02-18T17:17:44.090Z,12.00
2019-02-18T17:20:12.901Z,12.00
2019-02-18T17:22:41.572Z,11.90
2019-02-18T17:25:11.880Z,11.70
2019-02-18T17:27:40.587Z,11.70
2019-02-18T17:30:16.357Z,11.50
2019-02-18T17:32:45.034Z,11.40
2019-02-18T17:35:14.570Z,11.20
2019-02-18T17:37:43.253Z,11.10
2019-02-18T17:40:14.515Z,11.00
2019-02-18T17:42:44.167Z,10.90
2019-02-18T17:45:17.463Z,10.70
2019-02-18T17:47:46.280Z,10.60
2019-02-18T17:50:18.482Z,10.50
2019-02-18T17:52:47.810Z,10.50
2019-02-18T17:55:20.076Z,10.50
2019-02-18T17:57:48.779Z,10.50
2019-02-18T18:00:24.599Z,10.50
2019-02-18T18:02:53.437Z,10.50
2019-02-18T18:05:22.226Z,10.50
2019-02-18T18:07:50.975Z,10.50
2019-02-18T18:10:20.133Z,10.50
2019-02-18T18:12:48.787Z,10.50
2019-02-18T18:15:19.336Z,10.30
2019-02-18T18:17:47.919Z,10.30
2019-02-18T18:20:16.875Z,10.20
2019-02-18T18:22:45.680Z,10.20
2019-02-18T18:25:15.289Z,10.10
2019-02-18T18:27:43.946Z,10.10
2019-02-18T18:30:18.046Z,10.00
2019-02-18T18:32:46.718Z,10.00
2019-02-18T18:35:15.550Z,10.00
2019-02-18T18:37:44.097Z,9.90
2019-02-18T18:40:14.842Z,9.80
2019-02-18T18:42:43.446Z,9.70
2019-02-18T18:45:15.835Z,9.60
2019-02-18T18:47:44.841Z,9.50
2019-02-18T18:50:16.524Z,9.50
2019-02-18T18:52:45.718Z,9.50
2019-02-18T18:55:14.553Z,9.50
2019-02-18T18:57:43.622Z,9.40
2019-02-18T19:00:24.348Z,9.30
2019-02-18T19:02:53.204Z,9.40
2019-02-18T19:05:22.661Z,9.30
2019-02-18T19:07:51.324Z,9.30
2019-02-18T19:10:20.200Z,9.20
2019-02-18T19:12:48.830Z,9.20
2019-02-18T19:15:18.580Z,9.10
2019-02-18T19:17:47.305Z,9.00
2019-02-18T19:20:16.305Z,8.90
2019-02-18T19:22:44.919Z,9.00
2019-02-18T19:25:14.003Z,9.00
2019-02-18T19:27:42.612Z,9.00
2019-02-18T19:30:20.504Z,9.00
2019-02-18T19:32:49.697Z,9.10
2019-02-18T19:35:18.383Z,9.00
2019-02-18T19:37:47.354Z,8.90
2019-02-18T19:40:16.422Z,8.90
2019-02-18T19:42:45.056Z,8.80
2019-02-18T19:45:33.073Z,8.80
2019-02-18T19:48:02.184Z,8.80
2019-02-18T19:50:31.255Z,8.90
2019-02-18T19:52:59.817Z,8.80
2019-02-18T19:55:28.643Z,8.80
2019-02-18T19:57:57.620Z,8.70
2019-02-18T20:00:27.584Z,8.80
2019-02-18T20:02:56.336Z,8.90
2019-02-18T20:05:25.079Z,8.90
2019-02-18T20:07:53.766Z,9.00
2019-02-18T20:10:22.798Z,8.90
2019-02-18T20:12:52.082Z,8.90
2019-02-18T20:15:20.843Z,9.00
2019-02-18T20:17:49.568Z,8.90
2019-02-18T20:20:18.518Z,8.80
2019-02-18T20:22:47.507Z,8.80
2019-02-18T20:25:16.156Z,8.90
2019-02-18T20:27:45.330Z,8.90
2019-02-18T20:30:20.216Z,8.80
2019-02-18T20:32:49.004Z,8.90
2019-02-18T20:35:17.989Z,8.80
2019-02-18T20:37:46.989Z,8.90
2019-02-18T20:40:16.234Z,8.80
2019-02-18T20:42:45.073Z,8.90
2019-02-18T20:45:14.655Z,8.90
2019-02-18T20:47:43.617Z,8.90
2019-02-18T20:50:15.937Z,8.80
2019-02-18T20:52:45.029Z,8.80
2019-02-18T20:55:15.060Z,8.70
2019-02-18T20:57:43.936Z,8.70
2019-02-18T21:00:21.886Z,8.60
2019-02-18T21:02:50.724Z,8.60
2019-02-18T21:05:19.451Z,8.60
2019-02-18T21:07:48.195Z,8.50
2019-02-18T21:10:19.311Z,8.50
2019-02-18T21:12:49.559Z,8.40
2019-02-18T21:15:18.496Z,8.30
2019-02-18T21:17:47.591Z,8.20
2019-02-18T21:20:16.273Z,8.10
2019-02-18T21:22:45.134Z,8.10
2019-02-18T21:25:14.051Z,8.10
2019-02-18T21:27:42.802Z,8.00
2019-02-18T21:30:14.552Z,8.00
2019-02-18T21:32:43.289Z,7.90
2019-02-18T21:35:12.329Z,7.80
2019-02-18T21:37:41.892Z,7.80
2019-02-18T21:40:13.674Z,7.80
2019-02-18T21:42:42.434Z,7.70
2019-02-18T21:45:13.326Z,7.70
2019-02-18T21:47:42.044Z,7.50
2019-02-18T21:50:11.542Z,7.40
2019-02-18T21:52:44.208Z,7.40
2019-02-18T21:55:13.755Z,7.40
2019-02-18T21:57:42.506Z,7.40
2019-02-18T22:00:21.503Z,7.20
2019-02-18T22:02:50.666Z,7.30
2019-02-18T22:05:19.755Z,7.30
2019-02-18T22:07:48.394Z,7.20
2019-02-18T22:10:17.230Z,7.20
2019-02-18T22:12:46.013Z,7.30
2019-02-18T22:15:15.397Z,7.30
2019-02-18T22:17:44.363Z,7.20
2019-02-18T22:20:15.101Z,7.20
2019-02-18T22:22:43.884Z,7.10
2019-02-18T22:25:13.694Z,7.20
2019-02-18T22:27:43.536Z,7.20
2019-02-18T22:30:16.840Z,7.10
2019-02-18T22:32:45.626Z,7.00
2019-02-18T22:35:15.119Z,6.70
2019-02-18T22:37:43.915Z,6.70
2019-02-18T22:40:13.491Z,6.60
2019-02-18T22:42:42.431Z,6.50
2019-02-18T22:45:12.016Z,6.50
2019-02-18T22:47:40.763Z,6.40
2019-02-18T22:50:11.217Z,6.30
2019-02-18T22:52:40.259Z,6.40
2019-02-18T22:55:10.445Z,6.40
2019-02-18T22:57:39.637Z,6.30
2019-02-18T23:00:25.187Z,6.20
2019-02-18T23:02:54.275Z,6.10
2019-02-18T23:05:23.100Z,6.00
2019-02-18T23:07:51.915Z,6.00
2019-02-18T23:10:21.035Z,6.00
2019-02-18T23:12:49.867Z,6.10
2019-02-18T23:15:18.612Z,5.90
2019-02-18T23:17:47.750Z,5.90
2019-02-18T23:20:17.867Z,5.80
2019-02-18T23:22:46.509Z,5.70
2019-02-18T23:25:15.296Z,5.70
2019-02-18T23:27:43.919Z,5.70
2019-02-18T23:30:13.222Z,5.70
2019-02-18T23:32:42.012Z,5.70
2019-02-18T23:35:11.210Z,5.70
2019-02-18T23:37:40.398Z,5.60
2019-02-18T23:40:09.245Z,5.60
2019-02-18T23:42:38.039Z,5.50
2019-02-18T23:45:07.270Z,5.50
2019-02-18T23:47:35.955Z,5.50
2019-02-18T23:50:04.906Z,5.50
2019-02-18T23:52:33.696Z,5.50
2019-02-18T23:55:02.387Z,5.60
2019-02-18T23:57:31.059Z,5.70
2019-02-18T23:59:59.788Z,5.80
